Terminal Aerodrome Forecast
Issued by NWS Charleston, WV

Current Version | Previous Version | Text Only | Print | Product List | Glossary Off
Versions: 1 2 3 4 5 6 7 8 9 10 11 12 13 14 15 16 17 18 19 20 21 22 23

000
FTUS41 KRLX 151500 AAB
TAFBKW
TAF AMD
KBKW 151529Z 1515/1612 12005KT 6SM HZ BKN012
     FM151600 13006KT P6SM SCT020
      TEMPO 1516/1517 BKN020
     FM151900 14006KT P6SM SCT250
     FM160600 16008KT P6SM BKN040
     FM160800 17008KT 5SM -SHRA OVC025
     FM161000 17008KT 3SM -SHRA BR OVC018=

USA.gov is the U.S. government's official web portal to all federal, state and local government web resources and services.